West Winfield, New York
Current Conditions -  °F | °C
As of 3:53 AM on Saturday 29 Nov 2014 (Local Time) from KRME Reporting Station
Overcast Overcast  
Wind Chill: 13°   Ceiling: 10000
Heat Index: 21°   Visibility: 10mi
Dew Point: 17°   Wind: 6mph
Humidity: 85%   Direction: 100°E
Pressure: 30.25"   Gusts: NA
Location:  42.89°N, 75.19°W
Report Text: KRME 290853Z AUTO 10005KT 10SM OVC100 M06/M08 A3025 RMK AO2 SLP248 60000 T10611083 50002 TSNO
Loading
Personal Weather Stations






























Interactive Weather Map New forecast layout! Learn more

10-Day Weather Forecast

Advertisements
Track Severe Weather on mobile